sensor_id;sensor_type;location;lat;lon;timestamp;P1;durP1;ratioP1;P2;durP2;ratioP2
45887;SDS011;31595;51.418;7.572;2023-09-08T00:01:51;5.43;;;1.92;;
45887;SDS011;31595;51.418;7.572;2023-09-08T00:04:17;2.75;;;1.95;;
45887;SDS011;31595;51.418;7.572;2023-09-08T00:06:53;3.95;;;2.30;;
45887;SDS011;31595;51.418;7.572;2023-09-08T00:09:19;3.72;;;2.00;;
45887;SDS011;31595;51.418;7.572;2023-09-08T00:11:48;2.85;;;2.08;;
45887;SDS011;31595;51.418;7.572;2023-09-08T00:14:17;3.15;;;2.20;;
45887;SDS011;31595;51.418;7.572;2023-09-08T00:16:44;3.58;;;2.33;;
45887;SDS011;31595;51.418;7.572;2023-09-08T00:19:13;4.00;;;2.25;;
45887;SDS011;31595;51.418;7.572;2023-09-08T00:21:41;3.05;;;1.98;;
45887;SDS011;31595;51.418;7.572;2023-09-08T00:24:11;5.07;;;2.00;;
45887;SDS011;31595;51.418;7.572;2023-09-08T00:26:45;3.92;;;2.08;;
45887;SDS011;31595;51.418;7.572;2023-09-08T00:29:15;3.83;;;2.30;;
45887;SDS011;31595;51.418;7.572;2023-09-08T00:31:42;3.33;;;2.13;;
45887;SDS011;31595;51.418;7.572;2023-09-08T00:34:16;3.50;;;2.10;;
45887;SDS011;31595;51.418;7.572;2023-09-08T00:36:50;3.50;;;2.17;;
45887;SDS011;31595;51.418;7.572;2023-09-08T00:39:21;3.45;;;2.05;;
45887;SDS011;31595;51.418;7.572;2023-09-08T00:41:51;3.67;;;2.50;;
45887;SDS011;31595;51.418;7.572;2023-09-08T00:44:20;3.85;;;2.28;;
45887;SDS011;31595;51.418;7.572;2023-09-08T00:46:47;4.07;;;1.80;;
45887;SDS011;31595;51.418;7.572;2023-09-08T00:49:14;2.78;;;1.70;;
45887;SDS011;31595;51.418;7.572;2023-09-08T00:51:40;3.08;;;1.98;;
45887;SDS011;31595;51.418;7.572;2023-09-08T00:54:07;3.22;;;2.03;;
45887;SDS011;31595;51.418;7.572;2023-09-08T00:56:34;4.55;;;2.40;;
45887;SDS011;31595;51.418;7.572;2023-09-08T00:59:01;3.10;;;2.10;;
45887;SDS011;31595;51.418;7.572;2023-09-08T01:01:30;3.63;;;2.33;;
45887;SDS011;31595;51.418;7.572;2023-09-08T01:03:57;4.95;;;2.38;;
45887;SDS011;31595;51.418;7.572;2023-09-08T01:06:24;4.78;;;2.10;;
45887;SDS011;31595;51.418;7.572;2023-09-08T01:08:51;3.00;;;2.17;;
45887;SDS011;31595;51.418;7.572;2023-09-08T01:11:18;4.47;;;2.70;;
45887;SDS011;31595;51.418;7.572;2023-09-08T01:13:45;4.10;;;2.03;;
45887;SDS011;31595;51.418;7.572;2023-09-08T01:16:12;3.90;;;2.45;;
45887;SDS011;31595;51.418;7.572;2023-09-08T01:18:40;3.70;;;2.72;;
45887;SDS011;31595;51.418;7.572;2023-09-08T01:21:20;3.15;;;2.15;;
45887;SDS011;31595;51.418;7.572;2023-09-08T01:23:59;4.03;;;2.65;;
45887;SDS011;31595;51.418;7.572;2023-09-08T01:26:31;2.55;;;1.70;;
45887;SDS011;31595;51.418;7.572;2023-09-08T01:29:02;4.18;;;2.50;;
45887;SDS011;31595;51.418;7.572;2023-09-08T01:31:30;3.47;;;2.00;;
45887;SDS011;31595;51.418;7.572;2023-09-08T01:33:57;3.88;;;2.30;;
45887;SDS011;31595;51.418;7.572;2023-09-08T01:36:24;2.92;;;1.98;;
45887;SDS011;31595;51.418;7.572;2023-09-08T01:38:51;3.45;;;1.88;;
45887;SDS011;31595;51.418;7.572;2023-09-08T01:41:17;5.05;;;2.53;;
45887;SDS011;31595;51.418;7.572;2023-09-08T01:43:45;5.85;;;2.78;;
45887;SDS011;31595;51.418;7.572;2023-09-08T01:46:12;3.25;;;2.17;;
45887;SDS011;31595;51.418;7.572;2023-09-08T01:48:39;3.63;;;2.50;;
45887;SDS011;31595;51.418;7.572;2023-09-08T01:51:06;4.05;;;2.25;;
45887;SDS011;31595;51.418;7.572;2023-09-08T01:53:32;3.45;;;2.58;;
45887;SDS011;31595;51.418;7.572;2023-09-08T01:55:59;7.32;;;2.60;;
45887;SDS011;31595;51.418;7.572;2023-09-08T01:58:26;3.40;;;2.50;;
45887;SDS011;31595;51.418;7.572;2023-09-08T02:00:54;4.38;;;2.30;;
45887;SDS011;31595;51.418;7.572;2023-09-08T02:03:25;3.75;;;1.92;;
45887;SDS011;31595;51.418;7.572;2023-09-08T02:05:52;4.97;;;2.67;;
45887;SDS011;31595;51.418;7.572;2023-09-08T02:08:19;5.78;;;2.33;;
45887;SDS011;31595;51.418;7.572;2023-09-08T02:10:45;3.28;;;2.60;;
45887;SDS011;31595;51.418;7.572;2023-09-08T02:13:12;3.60;;;2.58;;
45887;SDS011;31595;51.418;7.572;2023-09-08T02:15:39;4.20;;;2.40;;
45887;SDS011;31595;51.418;7.572;2023-09-08T02:18:08;4.22;;;2.10;;
45887;SDS011;31595;51.418;7.572;2023-09-08T02:20:34;3.65;;;2.25;;
45887;SDS011;31595;51.418;7.572;2023-09-08T02:23:03;5.57;;;2.50;;
45887;SDS011;31595;51.418;7.572;2023-09-08T02:25:30;5.65;;;2.50;;
45887;SDS011;31595;51.418;7.572;2023-09-08T02:27:57;3.42;;;2.30;;
45887;SDS011;31595;51.418;7.572;2023-09-08T02:30:24;5.13;;;2.75;;
45887;SDS011;31595;51.418;7.572;2023-09-08T02:32:50;4.28;;;2.60;;
45887;SDS011;31595;51.418;7.572;2023-09-08T02:35:19;4.63;;;2.58;;
45887;SDS011;31595;51.418;7.572;2023-09-08T02:37:45;3.83;;;2.63;;
45887;SDS011;31595;51.418;7.572;2023-09-08T02:40:12;3.97;;;2.97;;
45887;SDS011;31595;51.418;7.572;2023-09-08T02:42:39;5.38;;;2.63;;
45887;SDS011;31595;51.418;7.572;2023-09-08T02:45:06;3.10;;;2.22;;
45887;SDS011;31595;51.418;7.572;2023-09-08T02:47:33;3.55;;;2.25;;
45887;SDS011;31595;51.418;7.572;2023-09-08T02:50:00;3.78;;;2.50;;
45887;SDS011;31595;51.418;7.572;2023-09-08T02:52:30;3.63;;;2.58;;
45887;SDS011;31595;51.418;7.572;2023-09-08T02:54:57;3.50;;;2.28;;
45887;SDS011;31595;51.418;7.572;2023-09-08T02:57:24;3.30;;;2.10;;
45887;SDS011;31595;51.418;7.572;2023-09-08T02:59:50;4.53;;;2.28;;
45887;SDS011;31595;51.418;7.572;2023-09-08T03:02:17;3.83;;;2.40;;
45887;SDS011;31595;51.418;7.572;2023-09-08T03:04:44;3.00;;;2.03;;
45887;SDS011;31595;51.418;7.572;2023-09-08T03:07:11;4.35;;;2.63;;
45887;SDS011;31595;51.418;7.572;2023-09-08T03:09:39;6.13;;;2.55;;
45887;SDS011;31595;51.418;7.572;2023-09-08T03:12:06;3.28;;;2.10;;
45887;SDS011;31595;51.418;7.572;2023-09-08T03:14:35;3.90;;;2.72;;
45887;SDS011;31595;51.418;7.572;2023-09-08T03:17:02;5.95;;;2.35;;
45887;SDS011;31595;51.418;7.572;2023-09-08T03:19:29;2.80;;;2.22;;
45887;SDS011;31595;51.418;7.572;2023-09-08T03:21:55;5.80;;;2.30;;
45887;SDS011;31595;51.418;7.572;2023-09-08T03:24:22;3.80;;;2.35;;
45887;SDS011;31595;51.418;7.572;2023-09-08T03:26:55;4.07;;;2.45;;
45887;SDS011;31595;51.418;7.572;2023-09-08T03:29:27;4.43;;;2.45;;
45887;SDS011;31595;51.418;7.572;2023-09-08T03:31:53;3.72;;;2.00;;
45887;SDS011;31595;51.418;7.572;2023-09-08T03:34:20;3.92;;;2.47;;
45887;SDS011;31595;51.418;7.572;2023-09-08T03:36:48;3.63;;;2.40;;
45887;SDS011;31595;51.418;7.572;2023-09-08T03:39:24;4.70;;;2.85;;
45887;SDS011;31595;51.418;7.572;2023-09-08T03:41:55;5.63;;;3.67;;
45887;SDS011;31595;51.418;7.572;2023-09-08T03:44:22;5.13;;;2.90;;
45887;SDS011;31595;51.418;7.572;2023-09-08T03:46:52;4.13;;;2.47;;
45887;SDS011;31595;51.418;7.572;2023-09-08T03:49:19;3.95;;;2.65;;
45887;SDS011;31595;51.418;7.572;2023-09-08T03:51:50;4.78;;;2.97;;
45887;SDS011;31595;51.418;7.572;2023-09-08T03:54:19;4.50;;;3.10;;
45887;SDS011;31595;51.418;7.572;2023-09-08T03:56:46;5.55;;;2.47;;
45887;SDS011;31595;51.418;7.572;2023-09-08T03:59:14;4.20;;;2.75;;
45887;SDS011;31595;51.418;7.572;2023-09-08T04:01:41;2.42;;;1.70;;
45887;SDS011;31595;51.418;7.572;2023-09-08T04:04:08;3.47;;;2.53;;
45887;SDS011;31595;51.418;7.572;2023-09-08T04:06:34;3.25;;;2.22;;
45887;SDS011;31595;51.418;7.572;2023-09-08T04:09:01;3.30;;;2.30;;
45887;SDS011;31595;51.418;7.572;2023-09-08T04:11:28;3.78;;;2.75;;
45887;SDS011;31595;51.418;7.572;2023-09-08T04:13:55;4.60;;;2.70;;
45887;SDS011;31595;51.418;7.572;2023-09-08T04:16:23;4.88;;;2.78;;
45887;SDS011;31595;51.418;7.572;2023-09-08T04:18:50;5.93;;;2.80;;
45887;SDS011;31595;51.418;7.572;2023-09-08T04:21:16;4.63;;;2.67;;
45887;SDS011;31595;51.418;7.572;2023-09-08T04:23:43;3.95;;;2.53;;
45887;SDS011;31595;51.418;7.572;2023-09-08T04:26:10;4.35;;;2.13;;
45887;SDS011;31595;51.418;7.572;2023-09-08T04:28:37;3.60;;;2.20;;
45887;SDS011;31595;51.418;7.572;2023-09-08T04:31:03;4.85;;;2.88;;
45887;SDS011;31595;51.418;7.572;2023-09-08T04:33:32;4.28;;;2.72;;
45887;SDS011;31595;51.418;7.572;2023-09-08T04:35:59;2.90;;;2.47;;
45887;SDS011;31595;51.418;7.572;2023-09-08T04:38:26;3.92;;;2.45;;
45887;SDS011;31595;51.418;7.572;2023-09-08T04:40:52;3.70;;;2.45;;
45887;SDS011;31595;51.418;7.572;2023-09-08T04:43:19;3.80;;;2.35;;
45887;SDS011;31595;51.418;7.572;2023-09-08T04:45:46;5.80;;;2.33;;
45887;SDS011;31595;51.418;7.572;2023-09-08T04:48:12;4.10;;;2.80;;
45887;SDS011;31595;51.418;7.572;2023-09-08T04:50:41;5.72;;;2.60;;
45887;SDS011;31595;51.418;7.572;2023-09-08T04:53:07;3.53;;;1.95;;
45887;SDS011;31595;51.418;7.572;2023-09-08T04:55:34;6.05;;;2.78;;
45887;SDS011;31595;51.418;7.572;2023-09-08T04:58:01;3.70;;;2.13;;
45887;SDS011;31595;51.418;7.572;2023-09-08T05:00:28;3.92;;;2.17;;
45887;SDS011;31595;51.418;7.572;2023-09-08T05:02:54;3.63;;;2.50;;
45887;SDS011;31595;51.418;7.572;2023-09-08T05:05:21;3.65;;;2.40;;
45887;SDS011;31595;51.418;7.572;2023-09-08T05:07:49;5.03;;;2.90;;
45887;SDS011;31595;51.418;7.572;2023-09-08T05:10:17;4.38;;;3.10;;
45887;SDS011;31595;51.418;7.572;2023-09-08T05:12:44;4.78;;;2.92;;
45887;SDS011;31595;51.418;7.572;2023-09-08T05:15:11;4.20;;;2.67;;
45887;SDS011;31595;51.418;7.572;2023-09-08T05:17:40;5.50;;;3.42;;
45887;SDS011;31595;51.418;7.572;2023-09-08T05:20:08;4.85;;;3.03;;
45887;SDS011;31595;51.418;7.572;2023-09-08T05:22:35;4.05;;;2.17;;
45887;SDS011;31595;51.418;7.572;2023-09-08T05:25:03;3.30;;;2.35;;
45887;SDS011;31595;51.418;7.572;2023-09-08T05:27:30;4.28;;;3.10;;
45887;SDS011;31595;51.418;7.572;2023-09-08T05:29:57;5.43;;;2.95;;
45887;SDS011;31595;51.418;7.572;2023-09-08T05:32:24;7.68;;;3.22;;
45887;SDS011;31595;51.418;7.572;2023-09-08T05:34:50;3.83;;;2.58;;
45887;SDS011;31595;51.418;7.572;2023-09-08T05:37:17;3.72;;;2.45;;
45887;SDS011;31595;51.418;7.572;2023-09-08T05:39:44;4.78;;;3.17;;
45887;SDS011;31595;51.418;7.572;2023-09-08T05:42:12;3.33;;;2.50;;
45887;SDS011;31595;51.418;7.572;2023-09-08T05:44:39;3.22;;;2.13;;
45887;SDS011;31595;51.418;7.572;2023-09-08T05:47:06;4.53;;;3.03;;
45887;SDS011;31595;51.418;7.572;2023-09-08T05:49:33;6.63;;;2.83;;
45887;SDS011;31595;51.418;7.572;2023-09-08T05:51:59;5.82;;;2.88;;
45887;SDS011;31595;51.418;7.572;2023-09-08T05:54:26;4.18;;;2.58;;
45887;SDS011;31595;51.418;7.572;2023-09-08T05:56:55;3.87;;;2.70;;
45887;SDS011;31595;51.418;7.572;2023-09-08T05:59:23;3.67;;;2.53;;
45887;SDS011;31595;51.418;7.572;2023-09-08T06:01:50;3.30;;;2.10;;
45887;SDS011;31595;51.418;7.572;2023-09-08T06:04:17;4.80;;;3.08;;
45887;SDS011;31595;51.418;7.572;2023-09-08T06:06:43;4.65;;;2.78;;
45887;SDS011;31595;51.418;7.572;2023-09-08T06:09:10;5.03;;;2.78;;
45887;SDS011;31595;51.418;7.572;2023-09-08T06:11:39;4.03;;;2.65;;
45887;SDS011;31595;51.418;7.572;2023-09-08T06:14:06;5.18;;;2.70;;
45887;SDS011;31595;51.418;7.572;2023-09-08T06:16:34;6.47;;;3.25;;
45887;SDS011;31595;51.418;7.572;2023-09-08T06:19:02;4.43;;;2.90;;
45887;SDS011;31595;51.418;7.572;2023-09-08T06:21:29;3.95;;;2.50;;
45887;SDS011;31595;51.418;7.572;2023-09-08T06:23:56;4.60;;;3.10;;
45887;SDS011;31595;51.418;7.572;2023-09-08T06:26:23;3.90;;;3.08;;
45887;SDS011;31595;51.418;7.572;2023-09-08T06:28:50;4.75;;;2.88;;
45887;SDS011;31595;51.418;7.572;2023-09-08T06:31:17;4.80;;;2.53;;
45887;SDS011;31595;51.418;7.572;2023-09-08T06:33:45;4.93;;;3.20;;
45887;SDS011;31595;51.418;7.572;2023-09-08T06:36:11;4.35;;;3.25;;
45887;SDS011;31595;51.418;7.572;2023-09-08T06:38:38;4.85;;;3.30;;
45887;SDS011;31595;51.418;7.572;2023-09-08T06:41:08;4.63;;;3.17;;
45887;SDS011;31595;51.418;7.572;2023-09-08T06:43:35;5.05;;;2.97;;
45887;SDS011;31595;51.418;7.572;2023-09-08T06:46:02;4.57;;;3.05;;
45887;SDS011;31595;51.418;7.572;2023-09-08T06:48:28;4.68;;;3.10;;
45887;SDS011;31595;51.418;7.572;2023-09-08T06:50:57;11.77;;;3.45;;
45887;SDS011;31595;51.418;7.572;2023-09-08T06:53:22;5.40;;;3.50;;
45887;SDS011;31595;51.418;7.572;2023-09-08T06:55:49;4.65;;;3.45;;
45887;SDS011;31595;51.418;7.572;2023-09-08T06:58:16;6.13;;;2.75;;
45887;SDS011;31595;51.418;7.572;2023-09-08T07:00:43;11.70;;;3.92;;
45887;SDS011;31595;51.418;7.572;2023-09-08T07:03:10;5.07;;;3.92;;
45887;SDS011;31595;51.418;7.572;2023-09-08T07:05:38;6.60;;;3.45;;
45887;SDS011;31595;51.418;7.572;2023-09-08T07:08:07;5.00;;;2.95;;
45887;SDS011;31595;51.418;7.572;2023-09-08T07:10:33;4.40;;;2.83;;
45887;SDS011;31595;51.418;7.572;2023-09-08T07:13:00;6.30;;;3.10;;
45887;SDS011;31595;51.418;7.572;2023-09-08T07:15:27;6.28;;;3.20;;
45887;SDS011;31595;51.418;7.572;2023-09-08T07:17:54;3.65;;;2.50;;
45887;SDS011;31595;51.418;7.572;2023-09-08T07:20:21;3.83;;;2.42;;
45887;SDS011;31595;51.418;7.572;2023-09-08T07:22:48;6.75;;;3.28;;
45887;SDS011;31595;51.418;7.572;2023-09-08T07:25:16;4.05;;;2.67;;
45887;SDS011;31595;51.418;7.572;2023-09-08T07:27:43;4.43;;;3.03;;
45887;SDS011;31595;51.418;7.572;2023-09-08T07:30:10;5.07;;;3.33;;
45887;SDS011;31595;51.418;7.572;2023-09-08T07:32:36;6.40;;;3.13;;
45887;SDS011;31595;51.418;7.572;2023-09-08T07:35:03;6.38;;;3.63;;
45887;SDS011;31595;51.418;7.572;2023-09-08T07:37:30;3.47;;;2.90;;
45887;SDS011;31595;51.418;7.572;2023-09-08T07:39:57;2.53;;;2.00;;
45887;SDS011;31595;51.418;7.572;2023-09-08T07:42:25;3.00;;;1.70;;
45887;SDS011;31595;51.418;7.572;2023-09-08T07:47:19;3.00;;;1.98;;
45887;SDS011;31595;51.418;7.572;2023-09-08T07:49:46;3.80;;;1.98;;
45887;SDS011;31595;51.418;7.572;2023-09-08T07:52:13;3.53;;;2.10;;
45887;SDS011;31595;51.418;7.572;2023-09-08T07:54:40;2.58;;;1.88;;
45887;SDS011;31595;51.418;7.572;2023-09-08T07:57:06;3.08;;;1.95;;
45887;SDS011;31595;51.418;7.572;2023-09-08T07:59:35;8.45;;;2.53;;
45887;SDS011;31595;51.418;7.572;2023-09-08T08:04:28;3.65;;;2.17;;
45887;SDS011;31595;51.418;7.572;2023-09-08T08:06:55;3.03;;;2.15;;
45887;SDS011;31595;51.418;7.572;2023-09-08T08:09:21;2.10;;;1.50;;
45887;SDS011;31595;51.418;7.572;2023-09-08T08:11:48;3.70;;;2.10;;
45887;SDS011;31595;51.418;7.572;2023-09-08T08:14:15;5.03;;;1.77;;
45887;SDS011;31595;51.418;7.572;2023-09-08T08:16:43;3.08;;;2.00;;
45887;SDS011;31595;51.418;7.572;2023-09-08T08:19:10;3.05;;;2.10;;
45887;SDS011;31595;51.418;7.572;2023-09-08T08:21:37;3.10;;;1.90;;
45887;SDS011;31595;51.418;7.572;2023-09-08T08:24:07;3.65;;;1.40;;
45887;SDS011;31595;51.418;7.572;2023-09-08T08:26:34;2.65;;;1.85;;
45887;SDS011;31595;51.418;7.572;2023-09-08T08:29:01;2.83;;;2.30;;
45887;SDS011;31595;51.418;7.572;2023-09-08T08:31:29;3.33;;;2.30;;
45887;SDS011;31595;51.418;7.572;2023-09-08T08:33:57;2.03;;;1.60;;
45887;SDS011;31595;51.418;7.572;2023-09-08T08:36:23;2.97;;;1.90;;
45887;SDS011;31595;51.418;7.572;2023-09-08T08:38:50;2.60;;;2.20;;
45887;SDS011;31595;51.418;7.572;2023-09-08T08:41:17;3.67;;;1.87;;
45887;SDS011;31595;51.418;7.572;2023-09-08T08:43:44;3.50;;;1.80;;
45887;SDS011;31595;51.418;7.572;2023-09-08T08:46:11;6.75;;;2.22;;
45887;SDS011;31595;51.418;7.572;2023-09-08T08:48:38;2.50;;;1.70;;
45887;SDS011;31595;51.418;7.572;2023-09-08T08:51:09;2.70;;;2.13;;
45887;SDS011;31595;51.418;7.572;2023-09-08T08:53:36;2.55;;;1.95;;
45887;SDS011;31595;51.418;7.572;2023-09-08T08:58:31;2.78;;;1.77;;
45887;SDS011;31595;51.418;7.572;2023-09-08T09:00:58;3.10;;;1.90;;
45887;SDS011;31595;51.418;7.572;2023-09-08T09:05:52;2.05;;;1.40;;
45887;SDS011;31595;51.418;7.572;2023-09-08T09:08:20;2.75;;;1.45;;
45887;SDS011;31595;51.418;7.572;2023-09-08T09:10:49;1.73;;;1.20;;
45887;SDS011;31595;51.418;7.572;2023-09-08T09:13:15;3.17;;;1.38;;
45887;SDS011;31595;51.418;7.572;2023-09-08T09:15:42;1.85;;;1.40;;
45887;SDS011;31595;51.418;7.572;2023-09-08T09:18:09;2.72;;;1.45;;
45887;SDS011;31595;51.418;7.572;2023-09-08T09:20:36;2.30;;;1.65;;
45887;SDS011;31595;51.418;7.572;2023-09-08T09:23:03;2.20;;;1.55;;
45887;SDS011;31595;51.418;7.572;2023-09-08T09:25:31;2.97;;;1.40;;
45887;SDS011;31595;51.418;7.572;2023-09-08T09:27:58;2.90;;;1.80;;
45887;SDS011;31595;51.418;7.572;2023-09-08T09:30:25;1.90;;;1.50;;
45887;SDS011;31595;51.418;7.572;2023-09-08T09:35:19;2.28;;;1.70;;
45887;SDS011;31595;51.418;7.572;2023-09-08T09:37:46;2.63;;;1.40;;
45887;SDS011;31595;51.418;7.572;2023-09-08T09:40:13;4.22;;;1.63;;
45887;SDS011;31595;51.418;7.572;2023-09-08T09:42:41;2.75;;;1.70;;
45887;SDS011;31595;51.418;7.572;2023-09-08T09:45:09;2.28;;;1.45;;
45887;SDS011;31595;51.418;7.572;2023-09-08T09:47:36;3.40;;;1.77;;
45887;SDS011;31595;51.418;7.572;2023-09-08T09:50:03;3.40;;;1.65;;
45887;SDS011;31595;51.418;7.572;2023-09-08T09:52:30;2.00;;;1.50;;
45887;SDS011;31595;51.418;7.572;2023-09-08T09:54:57;2.40;;;2.10;;
45887;SDS011;31595;51.418;7.572;2023-09-08T09:57:24;2.30;;;1.73;;
45887;SDS011;31595;51.418;7.572;2023-09-08T09:59:53;2.05;;;1.55;;
45887;SDS011;31595;51.418;7.572;2023-09-08T10:02:20;2.30;;;1.65;;
45887;SDS011;31595;51.418;7.572;2023-09-08T10:07:13;2.78;;;1.40;;
45887;SDS011;31595;51.418;7.572;2023-09-08T10:09:40;1.83;;;1.42;;
45887;SDS011;31595;51.418;7.572;2023-09-08T10:19:28;2.55;;;1.50;;
45887;SDS011;31595;51.418;7.572;2023-09-08T10:22:00;2.70;;;2.05;;
45887;SDS011;31595;51.418;7.572;2023-09-08T10:24:29;2.30;;;1.65;;
45887;SDS011;31595;51.418;7.572;2023-09-08T10:27:00;2.38;;;1.60;;
45887;SDS011;31595;51.418;7.572;2023-09-08T10:29:29;2.25;;;1.73;;
45887;SDS011;31595;51.418;7.572;2023-09-08T10:31:56;3.35;;;1.90;;
45887;SDS011;31595;51.418;7.572;2023-09-08T10:34:23;3.60;;;1.70;;
45887;SDS011;31595;51.418;7.572;2023-09-08T10:36:52;1.90;;;1.50;;
45887;SDS011;31595;51.418;7.572;2023-09-08T10:39:28;2.03;;;1.42;;
45887;SDS011;31595;51.418;7.572;2023-09-08T10:44:57;2.10;;;1.58;;
45887;SDS011;31595;51.418;7.572;2023-09-08T10:47:24;1.88;;;1.30;;
45887;SDS011;31595;51.418;7.572;2023-09-08T10:49:52;1.90;;;1.40;;
45887;SDS011;31595;51.418;7.572;2023-09-08T10:52:24;1.98;;;1.70;;
45887;SDS011;31595;51.418;7.572;2023-09-08T10:54:51;1.85;;;1.45;;
45887;SDS011;31595;51.418;7.572;2023-09-08T10:57:18;2.33;;;1.80;;
45887;SDS011;31595;51.418;7.572;2023-09-08T10:59:48;1.83;;;1.50;;
45887;SDS011;31595;51.418;7.572;2023-09-08T11:02:33;1.80;;;1.40;;
45887;SDS011;31595;51.418;7.572;2023-09-08T11:05:01;2.10;;;1.58;;
45887;SDS011;31595;51.418;7.572;2023-09-08T11:07:30;1.95;;;1.20;;
45887;SDS011;31595;51.418;7.572;2023-09-08T11:09:56;1.70;;;1.40;;
45887;SDS011;31595;51.418;7.572;2023-09-08T11:14:50;3.22;;;1.92;;
45887;SDS011;31595;51.418;7.572;2023-09-08T11:19:44;2.50;;;1.55;;
45887;SDS011;31595;51.418;7.572;2023-09-08T11:22:11;1.83;;;1.30;;
45887;SDS011;31595;51.418;7.572;2023-09-08T11:24:40;2.70;;;1.50;;
45887;SDS011;31595;51.418;7.572;2023-09-08T11:27:07;3.05;;;1.60;;
45887;SDS011;31595;51.418;7.572;2023-09-08T11:29:35;2.40;;;1.60;;
45887;SDS011;31595;51.418;7.572;2023-09-08T11:32:01;2.25;;;1.75;;
45887;SDS011;31595;51.418;7.572;2023-09-08T11:34:28;2.05;;;1.50;;
45887;SDS011;31595;51.418;7.572;2023-09-08T11:36:56;2.60;;;1.77;;
45887;SDS011;31595;51.418;7.572;2023-09-08T11:39:23;1.77;;;1.50;;
45887;SDS011;31595;51.418;7.572;2023-09-08T11:41:52;1.70;;;1.35;;
45887;SDS011;31595;51.418;7.572;2023-09-08T11:44:19;2.10;;;1.80;;
45887;SDS011;31595;51.418;7.572;2023-09-08T11:46:46;2.00;;;1.80;;
45887;SDS011;31595;51.418;7.572;2023-09-08T11:49:13;1.70;;;1.40;;
45887;SDS011;31595;51.418;7.572;2023-09-08T11:51:40;2.15;;;1.42;;
45887;SDS011;31595;51.418;7.572;2023-09-08T11:54:07;2.20;;;1.52;;
45887;SDS011;31595;51.418;7.572;2023-09-08T11:56:34;2.80;;;1.63;;
45887;SDS011;31595;51.418;7.572;2023-09-08T11:59:02;2.22;;;1.67;;
45887;SDS011;31595;51.418;7.572;2023-09-08T12:01:29;2.13;;;1.40;;
45887;SDS011;31595;51.418;7.572;2023-09-08T12:03:56;2.17;;;1.60;;
45887;SDS011;31595;51.418;7.572;2023-09-08T12:06:24;2.13;;;1.45;;
45887;SDS011;31595;51.418;7.572;2023-09-08T12:08:50;1.83;;;1.40;;
45887;SDS011;31595;51.418;7.572;2023-09-08T12:11:17;2.08;;;1.58;;
45887;SDS011;31595;51.418;7.572;2023-09-08T12:13:44;1.80;;;1.60;;
45887;SDS011;31595;51.418;7.572;2023-09-08T12:16:19;1.85;;;1.40;;
45887;SDS011;31595;51.418;7.572;2023-09-08T12:18:45;1.95;;;1.52;;
45887;SDS011;31595;51.418;7.572;2023-09-08T12:21:13;1.90;;;1.65;;
45887;SDS011;31595;51.418;7.572;2023-09-08T12:23:49;3.17;;;1.48;;
45887;SDS011;31595;51.418;7.572;2023-09-08T12:26:16;2.65;;;1.60;;
45887;SDS011;31595;51.418;7.572;2023-09-08T12:28:48;2.00;;;1.65;;
45887;SDS011;31595;51.418;7.572;2023-09-08T12:31:17;2.00;;;1.50;;
45887;SDS011;31595;51.418;7.572;2023-09-08T12:33:46;2.03;;;1.83;;
45887;SDS011;31595;51.418;7.572;2023-09-08T12:36:16;1.60;;;1.38;;
45887;SDS011;31595;51.418;7.572;2023-09-08T12:38:48;1.67;;;1.40;;
45887;SDS011;31595;51.418;7.572;2023-09-08T12:41:16;2.60;;;1.75;;
45887;SDS011;31595;51.418;7.572;2023-09-08T12:43:49;2.25;;;1.50;;
45887;SDS011;31595;51.418;7.572;2023-09-08T12:46:17;1.80;;;1.33;;
45887;SDS011;31595;51.418;7.572;2023-09-08T12:48:49;2.08;;;1.50;;
45887;SDS011;31595;51.418;7.572;2023-09-08T12:51:16;1.98;;;1.77;;
45887;SDS011;31595;51.418;7.572;2023-09-08T12:53:43;2.45;;;1.73;;
45887;SDS011;31595;51.418;7.572;2023-09-08T12:56:10;2.80;;;1.60;;
45887;SDS011;31595;51.418;7.572;2023-09-08T12:58:36;3.03;;;1.75;;
45887;SDS011;31595;51.418;7.572;2023-09-08T13:01:03;2.30;;;1.42;;
45887;SDS011;31595;51.418;7.572;2023-09-08T13:03:32;4.10;;;1.55;;
45887;SDS011;31595;51.418;7.572;2023-09-08T13:06:00;1.70;;;1.40;;
45887;SDS011;31595;51.418;7.572;2023-09-08T13:08:29;2.72;;;1.50;;
45887;SDS011;31595;51.418;7.572;2023-09-08T13:10:57;2.28;;;1.48;;
45887;SDS011;31595;51.418;7.572;2023-09-08T13:15:52;2.03;;;1.60;;
45887;SDS011;31595;51.418;7.572;2023-09-08T13:20:45;2.40;;;1.70;;
45887;SDS011;31595;51.418;7.572;2023-09-08T13:23:13;3.35;;;1.50;;
45887;SDS011;31595;51.418;7.572;2023-09-08T13:25:40;2.88;;;1.35;;
45887;SDS011;31595;51.418;7.572;2023-09-08T13:28:13;2.00;;;1.48;;
45887;SDS011;31595;51.418;7.572;2023-09-08T13:30:40;3.58;;;2.30;;
45887;SDS011;31595;51.418;7.572;2023-09-08T13:33:07;2.05;;;1.50;;
45887;SDS011;31595;51.418;7.572;2023-09-08T13:35:36;1.92;;;1.30;;
45887;SDS011;31595;51.418;7.572;2023-09-08T13:38:04;1.70;;;1.30;;
45887;SDS011;31595;51.418;7.572;2023-09-08T13:40:34;1.95;;;1.30;;
45887;SDS011;31595;51.418;7.572;2023-09-08T13:43:06;2.35;;;1.40;;
45887;SDS011;31595;51.418;7.572;2023-09-08T13:45:33;4.13;;;1.42;;
45887;SDS011;31595;51.418;7.572;2023-09-08T13:48:01;1.88;;;1.30;;
45887;SDS011;31595;51.418;7.572;2023-09-08T13:50:31;3.72;;;1.83;;
45887;SDS011;31595;51.418;7.572;2023-09-08T13:53:04;2.38;;;1.40;;
45887;SDS011;31595;51.418;7.572;2023-09-08T13:55:31;1.73;;;1.17;;
45887;SDS011;31595;51.418;7.572;2023-09-08T14:00:26;2.75;;;1.50;;
45887;SDS011;31595;51.418;7.572;2023-09-08T14:02:53;2.35;;;1.40;;
45887;SDS011;31595;51.418;7.572;2023-09-08T14:05:19;1.60;;;1.10;;
45887;SDS011;31595;51.418;7.572;2023-09-08T14:07:46;2.58;;;1.25;;
45887;SDS011;31595;51.418;7.572;2023-09-08T14:10:13;2.10;;;1.30;;
45887;SDS011;31595;51.418;7.572;2023-09-08T14:12:40;4.35;;;1.55;;
45887;SDS011;31595;51.418;7.572;2023-09-08T14:15:07;2.45;;;1.45;;
45887;SDS011;31595;51.418;7.572;2023-09-08T14:17:35;2.72;;;1.70;;
45887;SDS011;31595;51.418;7.572;2023-09-08T14:20:02;2.50;;;1.65;;
45887;SDS011;31595;51.418;7.572;2023-09-08T14:22:31;3.80;;;1.88;;
45887;SDS011;31595;51.418;7.572;2023-09-08T14:24:57;3.43;;;1.57;;
45887;SDS011;31595;51.418;7.572;2023-09-08T14:27:24;2.20;;;1.37;;
45887;SDS011;31595;51.418;7.572;2023-09-08T14:29:51;2.38;;;1.25;;
45887;SDS011;31595;51.418;7.572;2023-09-08T14:32:18;1.80;;;1.20;;
45887;SDS011;31595;51.418;7.572;2023-09-08T14:34:46;1.88;;;1.42;;
45887;SDS011;31595;51.418;7.572;2023-09-08T14:37:13;2.17;;;1.55;;
45887;SDS011;31595;51.418;7.572;2023-09-08T14:39:39;2.97;;;1.42;;
45887;SDS011;31595;51.418;7.572;2023-09-08T14:42:06;3.13;;;1.40;;
45887;SDS011;31595;51.418;7.572;2023-09-08T14:44:35;3.65;;;1.63;;
45887;SDS011;31595;51.418;7.572;2023-09-08T14:47:02;2.80;;;1.10;;
45887;SDS011;31595;51.418;7.572;2023-09-08T14:49:28;2.30;;;1.45;;
45887;SDS011;31595;51.418;7.572;2023-09-08T14:51:56;3.78;;;1.52;;
45887;SDS011;31595;51.418;7.572;2023-09-08T14:54:23;2.15;;;1.30;;
45887;SDS011;31595;51.418;7.572;2023-09-08T14:56:51;2.00;;;1.38;;
45887;SDS011;31595;51.418;7.572;2023-09-08T14:59:18;2.60;;;1.40;;
45887;SDS011;31595;51.418;7.572;2023-09-08T15:01:44;4.72;;;1.27;;
45887;SDS011;31595;51.418;7.572;2023-09-08T15:04:11;1.90;;;1.42;;
45887;SDS011;31595;51.418;7.572;2023-09-08T15:06:38;2.42;;;1.08;;
45887;SDS011;31595;51.418;7.572;2023-09-08T15:09:06;2.30;;;1.20;;
45887;SDS011;31595;51.418;7.572;2023-09-08T15:11:33;2.78;;;1.10;;
45887;SDS011;31595;51.418;7.572;2023-09-08T15:14:00;2.58;;;1.20;;
45887;SDS011;31595;51.418;7.572;2023-09-08T15:16:26;2.40;;;1.17;;
45887;SDS011;31595;51.418;7.572;2023-09-08T15:18:53;2.88;;;1.45;;
45887;SDS011;31595;51.418;7.572;2023-09-08T15:21:20;2.15;;;1.30;;
45887;SDS011;31595;51.418;7.572;2023-09-08T15:23:51;2.67;;;1.55;;
45887;SDS011;31595;51.418;7.572;2023-09-08T15:26:19;2.15;;;1.45;;
45887;SDS011;31595;51.418;7.572;2023-09-08T15:31:15;2.47;;;1.15;;